Time;durP1;ratioP1;P1;durP2;ratioP2;P2;SDS_P1;SDS_P2;PMS_P1;PMS_P2;Temp;Humidity;BMP_temperature;BMP_pressure;BME280_temperature;BME280_humidity;BME280_pressure;Samples;Min_cycle;Max_cycle;Signal;HPM_P1;HPM_P2
2022/01/05 00:00:18;;;;;;;13.20;10.20;;;;;;;4.01;91.88;97412.56;446086;1273;142763;-58
2022/01/05 00:10:30;;;;;;;9.10;7.50;;;;;;;4.06;91.70;97431.62;446978;1271;144491;-59
2022/01/05 00:20:36;;;;;;;12.50;8.50;;;;;;;4.07;91.73;97435.53;446834;1271;142349;-58
2022/01/05 00:30:41;;;;;;;13.10;9.50;;;;;;;4.05;91.85;97436.18;445990;1271;141181;-59
2022/01/05 00:40:47;;;;;;;15.70;9.90;;;;;;;4.01;91.79;97450.31;447473;1270;142041;-59
2022/01/05 00:50:53;;;;;;;17.00;11.20;;;;;;;4.01;91.69;97444.06;447055;1271;141503;-59
2022/01/05 01:00:59;;;;;;;14.20;11.10;;;;;;;4.07;92.03;97436.41;446462;1270;167882;-58
2022/01/05 01:11:05;;;;;;;15.90;11.70;;;;;;;4.12;92.02;97455.76;447126;1271;143018;-58
2022/01/05 01:21:11;;;;;;;14.60;11.10;;;;;;;4.14;91.78;97481.27;446729;1270;151613;-59
2022/01/05 01:31:17;;;;;;;12.30;10.30;;;;;;;4.20;92.28;97502.11;447132;1271;141127;-59
2022/01/05 01:41:23;;;;;;;13.60;10.20;;;;;;;4.26;92.18;97497.55;447174;1271;142330;-57
2022/01/05 01:51:28;;;;;;;10.00;8.10;;;;;;;4.32;91.93;97492.42;446233;1271;141549;-58
2022/01/05 02:01:34;;;;;;;12.20;7.50;;;;;;;4.32;91.93;97504.02;447072;1271;143059;-57
2022/01/05 02:11:41;;;;;;;9.50;8.00;;;;;;;4.29;91.79;97504.23;441006;1272;142350;-58
2022/01/05 02:21:47;;;;;;;8.30;7.20;;;;;;;4.31;91.57;97519.54;444758;1271;142442;-58
2022/01/05 02:31:53;;;;;;;9.90;7.90;;;;;;;4.31;91.80;97535.82;447096;1271;140965;-58
2022/01/05 02:41:58;;;;;;;9.80;8.70;;;;;;;4.30;91.42;97542.08;447335;1270;141182;-58
2022/01/05 02:52:05;;;;;;;12.20;10.10;;;;;;;4.30;91.52;97539.01;446337;1271;142051;-57
2022/01/05 03:02:11;;;;;;;9.10;8.00;;;;;;;4.27;91.37;97523.26;447389;1270;141675;-58
2022/01/05 03:12:17;;;;;;;9.80;7.50;;;;;;;4.20;91.19;97502.86;446079;1271;145682;-58
2022/01/05 03:22:23;;;;;;;9.50;7.70;;;;;;;4.13;91.25;97515.79;440953;1270;143808;-57
2022/01/05 03:32:38;;;;;;;10.90;8.50;;;;;;;4.07;91.11;97520.02;444497;1271;141069;-58
2022/01/05 03:42:44;;;;;;;8.60;7.60;;;;;;;4.06;91.45;97507.27;441928;1270;143058;-58
2022/01/05 03:52:50;;;;;;;7.90;6.60;;;;;;;4.09;91.55;97497.02;429957;1270;141721;-56
2022/01/05 04:02:56;;;;;;;8.60;6.90;;;;;;;4.12;91.45;97508.92;444799;1271;140910;-57
2022/01/05 04:13:02;;;;;;;8.60;6.40;;;;;;;4.10;91.44;97533.67;446698;1270;141274;-57
2022/01/05 04:23:08;;;;;;;7.80;6.00;;;;;;;4.09;91.22;97513.98;447389;1271;152476;-58
2022/01/05 04:33:14;;;;;;;8.10;6.30;;;;;;;4.10;91.12;97515.61;446196;1271;141933;-59
2022/01/05 04:43:40;;;;;;;8.00;6.10;;;;;;;4.07;90.98;97518.61;447177;1271;141675;-57
2022/01/05 04:53:45;;;;;;;8.80;8.00;;;;;;;3.74;90.62;97499.62;447339;1270;140942;-58
2022/01/05 05:03:51;;;;;;;11.80;8.40;;;;;;;3.56;90.91;97523.33;444600;1271;142142;-57
2022/01/05 05:13:57;;;;;;;9.60;8.70;;;;;;;3.67;91.43;97542.70;430379;1270;141527;-57
2022/01/05 05:24:03;;;;;;;23.70;17.00;;;;;;;3.71;91.50;97548.11;429550;1273;142550;-58
2022/01/05 05:34:09;;;;;;;10.50;9.20;;;;;;;3.71;91.21;97560.73;447248;1271;142677;-57
2022/01/05 05:44:15;;;;;;;10.20;9.00;;;;;;;3.72;91.54;97559.14;447370;1269;141796;-58
2022/01/05 05:54:21;;;;;;;11.20;9.30;;;;;;;3.73;91.44;97566.84;446603;1269;142203;-58
2022/01/05 06:04:26;;;;;;;11.90;9.10;;;;;;;3.69;91.05;97568.12;447426;1271;142294;-58
2022/01/05 06:14:32;;;;;;;12.70;9.20;;;;;;;3.69;91.06;97575.60;447429;1271;142036;-59
2022/01/05 06:24:39;;;;;;;11.40;9.60;;;;;;;3.61;90.70;97579.23;446123;1273;142241;-58
2022/01/05 06:34:45;;;;;;;16.10;12.70;;;;;;;3.52;90.89;97596.10;437496;1271;142341;-58
2022/01/05 06:44:51;;;;;;;14.40;11.80;;;;;;;3.53;90.99;97601.77;430269;1271;141156;-59
2022/01/05 06:54:57;;;;;;;13.90;11.10;;;;;;;3.58;91.21;97590.70;440969;1270;142412;-58
2022/01/05 07:05:02;;;;;;;12.60;9.40;;;;;;;3.63;91.08;97607.63;447381;1271;142481;-58
2022/01/05 07:15:10;;;;;;;13.30;10.50;;;;;;;3.69;90.85;97602.23;441164;1270;166443;-57
2022/01/05 07:25:15;;;;;;;18.20;11.10;;;;;;;3.73;90.81;97587.56;447390;1271;141894;-58
2022/01/05 07:35:21;;;;;;;20.90;13.80;;;;;;;3.73;90.70;97591.42;436247;1271;142543;-58
2022/01/05 07:45:27;;;;;;;13.20;11.30;;;;;;;3.72;90.71;97590.44;446638;1271;142227;-57
2022/01/05 07:55:34;;;;;;;17.80;12.50;;;;;;;3.75;90.83;97583.13;447389;1270;141906;-58
2022/01/05 08:05:40;;;;;;;16.60;13.00;;;;;;;3.82;90.70;97578.30;447395;1269;141499;-58
2022/01/05 08:15:46;;;;;;;20.30;14.80;;;;;;;3.96;90.93;97580.48;446658;1271;194953;-58
2022/01/05 08:25:52;;;;;;;17.00;15.20;;;;;;;4.10;90.92;97579.02;447324;1270;142954;-57
2022/01/05 08:35:58;;;;;;;19.90;13.40;;;;;;;4.26;90.66;97577.55;437801;1270;142690;-67
2022/01/05 08:46:04;;;;;;;20.70;14.90;;;;;;;4.33;90.16;97576.41;446371;1271;141644;-61
2022/01/05 08:56:10;;;;;;;20.20;15.00;;;;;;;4.35;90.40;97571.05;447190;1270;142845;-67
2022/01/05 09:06:16;;;;;;;21.90;16.10;;;;;;;4.45;90.22;97571.60;435775;1271;142162;-62
2022/01/05 09:16:22;;;;;;;22.10;16.80;;;;;;;4.58;90.05;97576.54;447253;1271;141909;-63
2022/01/05 09:26:28;;;;;;;21.20;15.20;;;;;;;4.67;89.92;97575.21;439463;1271;141151;-58
2022/01/05 09:36:37;;;;;;;23.20;18.20;;;;;;;4.67;89.73;97575.73;429565;1271;142519;-62
2022/01/05 09:47:04;;;;;;;20.80;16.60;;;;;;;4.59;89.90;97570.55;447381;1271;141919;-66
2022/01/05 09:57:10;;;;;;;18.30;14.40;;;;;;;4.55;90.15;97566.85;446382;1270;160110;-70
2022/01/05 10:07:16;;;;;;;21.50;15.30;;;;;;;4.52;90.03;97567.95;447414;1270;184560;-60
2022/01/05 10:17:29;;;;;;;13.50;10.30;;;;;;;4.51;90.06;97571.99;447392;1270;142843;-60
2022/01/05 10:27:36;;;;;;;12.60;10.90;;;;;;;4.58;90.32;97556.08;446683;1271;142014;-61
2022/01/05 10:37:44;;;;;;;12.20;10.20;;;;;;;4.60;90.30;97561.67;438404;1271;141458;-61
2022/01/05 10:48:05;;;;;;;10.30;8.40;;;;;;;4.56;90.37;97553.48;439302;1271;142663;-59
2022/01/05 10:58:15;;;;;;;11.10;8.20;;;;;;;4.55;90.41;97567.59;447095;1272;142076;-61
2022/01/05 11:08:20;;;;;;;10.80;8.10;;;;;;;4.58;90.15;97562.45;446951;1271;141815;-60
2022/01/05 11:18:30;;;;;;;8.50;6.20;;;;;;;4.56;90.44;97555.56;446383;1271;142495;-59
2022/01/05 11:28:37;;;;;;;8.10;7.10;;;;;;;4.50;90.19;97551.95;447019;1271;141751;-64
2022/01/05 11:38:43;;;;;;;8.30;6.70;;;;;;;4.44;90.51;97557.06;447447;1271;141338;-62
2022/01/05 11:49:03;;;;;;;11.80;7.50;;;;;;;4.38;90.33;97557.52;446654;1271;141640;-62
2022/01/05 11:59:21;;;;;;;8.40;7.10;;;;;;;4.33;90.66;97536.17;447103;1271;141872;-62
2022/01/05 12:09:29;;;;;;;9.50;7.50;;;;;;;4.38;90.89;97528.94;441553;1271;140900;-63
2022/01/05 12:19:58;;;;;;;10.10;7.90;;;;;;;4.35;90.97;97537.94;447168;1271;141130;-67
2022/01/05 12:30:25;;;;;;;11.10;8.20;;;;;;;4.39;91.09;97530.25;447259;1270;141781;-67
2022/01/05 12:40:35;;;;;;;1.90;1.80;;;;;;;4.34;90.41;97562.10;447270;1270;141061;-60
2022/01/05 12:50:41;;;;;;;1.80;1.60;;;;;;;3.35;88.29;97597.36;437170;1270;141310;-61
2022/01/05 13:00:47;;;;;;;3.00;2.20;;;;;;;2.89;88.84;97619.20;442756;1271;170507;-60
2022/01/05 13:10:54;;;;;;;3.10;1.90;;;;;;;2.63;88.88;97630.70;439735;1270;141650;-63
2022/01/05 13:21:00;;;;;;;4.00;1.60;;;;;;;2.54;89.03;97647.63;441811;1270;142984;-60
2022/01/05 13:31:11;;;;;;;2.90;1.30;;;;;;;2.46;88.91;97663.67;442882;1269;141662;-61
2022/01/05 13:41:18;;;;;;;2.90;1.60;;;;;;;2.40;88.75;97650.36;433861;1271;142492;-62
2022/01/05 13:51:27;;;;;;;;;;;;;;;2.25;88.36;97646.15;446501;1270;141570;-60
2022/01/05 14:01:33;;;;;;;3.40;2.40;;;;;;;2.27;88.50;97674.66;445893;1270;127448;-60
2022/01/05 14:11:40;;;;;;;3.70;2.50;;;;;;;2.31;88.77;97681.68;443549;1271;142403;-63
2022/01/05 14:21:47;;;;;;;4.10;3.30;;;;;;;2.35;88.76;97706.27;446487;1271;141700;-62
2022/01/05 14:32:01;;;;;;;6.30;4.60;;;;;;;2.32;88.58;97730.66;447324;1271;141964;-62
2022/01/05 14:42:10;;;;;;;8.20;6.70;;;;;;;2.28;88.49;97738.15;447171;1270;142868;-61
2022/01/05 14:52:17;;;;;;;5.10;4.20;;;;;;;2.16;88.58;97745.06;446789;1270;210019;-62
2022/01/05 15:02:23;;;;;;;8.70;4.80;;;;;;;1.99;87.91;97776.95;432660;1270;141121;-67
2022/01/05 15:12:30;;;;;;;8.40;5.40;;;;;;;1.81;87.90;97787.83;437248;1270;140896;-62
2022/01/05 15:22:36;;;;;;;8.60;5.90;;;;;;;1.63;87.71;97814.02;437315;1271;144919;-65
2022/01/05 15:32:42;;;;;;;11.70;6.10;;;;;;;1.40;87.79;97816.48;447324;1270;141171;-60
2022/01/05 15:42:48;;;;;;;8.00;6.10;;;;;;;1.35;87.94;97824.98;433941;1270;142022;-59
2022/01/05 15:52:54;;;;;;;9.70;7.60;;;;;;;1.23;87.92;97833.23;447294;1270;142450;-60
2022/01/05 16:03:00;;;;;;;10.20;5.20;;;;;;;1.13;88.08;97853.23;447444;1270;141413;-62
2022/01/05 16:13:06;;;;;;;8.60;5.90;;;;;;;1.12;87.97;97862.58;446702;1270;142058;-63
2022/01/05 16:23:12;;;;;;;9.20;5.20;;;;;;;1.06;87.87;97865.14;444094;1269;141588;-61
2022/01/05 16:33:17;;;;;;;9.80;5.70;;;;;;;1.05;87.94;97868.84;445494;1270;142273;-63
2022/01/05 16:43:23;;;;;;;8.30;5.50;;;;;;;1.08;87.63;97882.48;447308;1270;143102;-61
2022/01/05 16:53:29;;;;;;;11.00;6.20;;;;;;;1.03;87.33;97890.83;447347;1270;142174;-59
2022/01/05 17:03:35;;;;;;;9.80;6.00;;;;;;;0.99;86.95;97905.00;446704;1271;141842;-54
2022/01/05 17:13:41;;;;;;;7.70;4.40;;;;;;;1.00;86.88;97909.95;436099;1270;147166;-55
2022/01/05 17:23:51;;;;;;;9.40;4.70;;;;;;;0.97;86.67;97912.67;447419;1271;143135;-56
2022/01/05 17:33:58;;;;;;;7.70;5.10;;;;;;;0.99;86.48;97909.63;446664;1270;144281;-55
2022/01/05 17:44:04;;;;;;;4.80;3.40;;;;;;;0.95;86.22;97920.34;441844;1270;141959;-60
2022/01/05 17:54:11;;;;;;;8.00;2.80;;;;;;;0.97;85.96;97934.56;445078;1271;142676;-60
2022/01/05 18:04:18;;;;;;;6.00;2.70;;;;;;;0.98;85.44;97939.14;445855;1271;142264;-64
2022/01/05 18:14:24;;;;;;;4.70;3.50;;;;;;;0.96;85.27;97946.48;447174;1270;141625;-63
2022/01/05 18:24:30;;;;;;;6.10;3.30;;;;;;;0.93;85.45;97947.14;446596;1270;142937;-62
2022/01/05 18:34:36;;;;;;;6.10;3.30;;;;;;;0.90;85.41;97954.73;435474;1271;142165;-63
2022/01/05 18:44:41;;;;;;;7.00;3.20;;;;;;;0.82;85.28;97959.94;444701;1270;144024;-61
2022/01/05 18:54:47;;;;;;;6.60;3.40;;;;;;;0.80;85.02;97961.08;446371;1271;141552;-63
2022/01/05 19:04:53;;;;;;;5.60;3.10;;;;;;;0.78;84.91;97962.91;444895;1272;141986;-62
2022/01/05 19:14:59;;;;;;;8.30;3.40;;;;;;;0.79;84.64;97947.17;440099;1271;140758;-63
2022/01/05 19:25:08;;;;;;;5.70;3.10;;;;;;;0.75;84.47;97950.48;438761;1271;141365;-63
2022/01/05 19:35:33;;;;;;;7.10;3.90;;;;;;;0.53;84.58;97951.18;436366;1271;141208;-62
2022/01/05 19:45:39;;;;;;;5.50;3.30;;;;;;;0.43;84.46;97959.43;446339;1271;143411;-63
2022/01/05 19:55:47;;;;;;;10.10;4.80;;;;;;;0.44;84.54;97964.03;447333;1271;141422;-62
2022/01/05 20:05:53;;;;;;;6.20;4.50;;;;;;;0.44;84.49;97972.29;447371;1271;197006;-67
2022/01/05 20:15:59;;;;;;;12.90;5.10;;;;;;;0.46;84.08;97981.16;443128;1271;141917;-65
2022/01/05 20:26:05;;;;;;;9.10;5.40;;;;;;;0.49;84.02;97982.23;447304;1270;141121;-63
2022/01/05 20:36:11;;;;;;;9.60;5.10;;;;;;;0.50;83.38;97976.66;446536;1270;151917;-62
2022/01/05 20:46:17;;;;;;;11.90;5.40;;;;;;;0.56;83.33;97988.06;438266;1271;141483;-64
2022/01/05 20:56:22;;;;;;;9.10;5.90;;;;;;;0.64;83.00;97981.16;429761;1270;141415;-64
2022/01/05 21:06:28;;;;;;;9.20;4.60;;;;;;;0.67;82.49;97977.70;444175;1270;141897;-60
2022/01/05 21:16:34;;;;;;;8.20;4.80;;;;;;;0.67;82.05;97970.86;447391;1270;141927;-62
2022/01/05 21:26:40;;;;;;;8.00;4.60;;;;;;;0.51;81.69;97965.24;447194;1271;143850;-61
2022/01/05 21:36:46;;;;;;;11.70;4.70;;;;;;;0.36;81.65;97969.73;446296;1271;141433;-61
2022/01/05 21:46:52;;;;;;;9.80;5.30;;;;;;;0.25;81.85;97974.91;447229;1272;141700;-61
2022/01/05 21:56:58;;;;;;;10.70;6.10;;;;;;;0.29;82.08;97979.56;444887;1270;141258;-62
2022/01/05 22:07:04;;;;;;;8.90;4.70;;;;;;;0.47;82.09;97985.22;446579;1271;142598;-62
2022/01/05 22:17:09;;;;;;;7.30;4.60;;;;;;;0.62;81.88;97983.66;447350;1270;141847;-62
2022/01/05 22:27:15;;;;;;;7.30;4.40;;;;;;;0.69;82.04;97983.14;439390;1270;144668;-63
2022/01/05 22:37:22;;;;;;;10.90;4.70;;;;;;;0.70;82.28;97977.40;447400;1271;141907;-63
2022/01/05 22:47:27;;;;;;;8.70;5.00;;;;;;;0.68;82.72;97980.98;447288;1271;143085;-63
2022/01/05 22:57:33;;;;;;;5.30;3.60;;;;;;;0.60;83.14;97971.52;446621;1271;142352;-62
2022/01/05 23:07:39;;;;;;;9.50;5.40;;;;;;;0.66;83.69;97966.05;447342;1269;144799;-62
2022/01/05 23:17:45;;;;;;;7.30;4.10;;;;;;;0.77;84.02;97966.38;434660;1271;141137;-62
2022/01/05 23:27:51;;;;;;;5.60;4.00;;;;;;;0.77;84.09;97969.30;442260;1271;141853;-63
2022/01/05 23:37:59;;;;;;;5.90;3.90;;;;;;;0.77;84.25;97971.58;447458;1270;141594;-62
2022/01/05 23:48:07;;;;;;;7.20;4.30;;;;;;;0.76;84.45;97963.19;447422;1271;141446;-61
2022/01/05 23:58:19;;;;;;;6.50;3.80;;;;;;;0.76;84.52;97956.14;447428;1270;140852;-61
